createdAt,value
2023-02-12T00:01:27.155Z,1.23
2023-02-12T00:06:22.735Z,1.25
2023-02-12T00:08:53.049Z,1.98
2023-02-12T00:11:24.707Z,1.25
2023-02-12T00:13:53.483Z,1.10
2023-02-12T00:16:24.348Z,1.70
2023-02-12T00:18:56.707Z,0.98
2023-02-12T00:21:25.368Z,0.98
2023-02-12T00:23:52.847Z,1.13
2023-02-12T00:26:21.818Z,1.00
2023-02-12T00:28:50.920Z,0.90
2023-02-12T00:31:21.952Z,1.30
2023-02-12T00:33:50.169Z,1.60
2023-02-12T00:36:20.775Z,0.97
2023-02-12T00:38:49.574Z,1.25
2023-02-12T00:41:17.229Z,1.40
2023-02-12T00:43:45.051Z,1.40
2023-02-12T00:46:13.407Z,1.25
2023-02-12T00:48:41.137Z,1.55
2023-02-12T00:51:09.394Z,1.10
2023-02-12T00:53:37.054Z,1.10
2023-02-12T00:56:05.204Z,1.02
2023-02-12T00:58:32.955Z,1.13
2023-02-12T01:01:00.995Z,1.23
2023-02-12T01:03:28.780Z,1.50
2023-02-12T01:05:57.748Z,1.60
2023-02-12T01:08:26.228Z,1.60
2023-02-12T01:10:59.559Z,1.45
2023-02-12T01:13:28.375Z,1.20
2023-02-12T01:16:18.559Z,1.50
2023-02-12T01:18:47.671Z,1.48
2023-02-12T01:23:58.085Z,1.42
2023-02-12T01:28:59.002Z,1.30
2023-02-12T01:31:29.100Z,1.35
2023-02-12T01:33:58.919Z,1.33
2023-02-12T01:36:28.358Z,1.40
2023-02-12T01:38:58.017Z,1.33
2023-02-12T01:41:29.552Z,1.35
2023-02-12T01:44:05.931Z,1.38
2023-02-12T01:46:33.649Z,1.20
2023-02-12T01:49:02.997Z,1.48
2023-02-12T01:51:31.961Z,1.33
2023-02-12T01:54:03.109Z,1.60
2023-02-12T01:56:31.295Z,1.42
2023-02-12T01:58:59.418Z,2.15
2023-02-12T02:01:29.991Z,1.15
2023-02-12T02:04:02.743Z,1.50
2023-02-12T02:06:38.372Z,1.50
2023-02-12T02:09:06.438Z,1.70
2023-02-12T02:11:52.345Z,2.85
2023-02-12T02:14:35.242Z,2.33
2023-02-12T02:17:30.168Z,2.25
2023-02-12T02:20:01.664Z,2.13
2023-02-12T02:22:53.095Z,1.95
2023-02-12T02:26:07.895Z,2.15
2023-02-12T02:28:53.988Z,2.90
2023-02-12T02:31:24.385Z,3.00
2023-02-12T02:34:09.473Z,3.05
2023-02-12T02:37:00.934Z,3.08
2023-02-12T02:39:42.657Z,3.17
2023-02-12T02:42:27.989Z,3.28
2023-02-12T02:45:06.351Z,2.40
2023-02-12T02:47:41.469Z,2.35
2023-02-12T02:50:17.328Z,2.17
2023-02-12T02:52:54.061Z,2.40
2023-02-12T02:55:25.851Z,2.53
2023-02-12T02:57:58.126Z,2.10
2023-02-12T03:00:37.489Z,2.22
2023-02-12T03:03:13.666Z,2.03
2023-02-12T03:05:48.473Z,1.73
2023-02-12T03:08:25.242Z,1.50
2023-02-12T03:11:11.411Z,2.10
2023-02-12T03:14:29.215Z,1.92
2023-02-12T03:17:04.406Z,1.70
2023-02-12T03:19:37.354Z,1.80
2023-02-12T03:22:12.391Z,2.05
2023-02-12T03:24:45.351Z,1.90
2023-02-12T03:27:34.068Z,1.90
2023-02-12T03:30:04.064Z,1.50
2023-02-12T03:33:01.167Z,1.92
2023-02-12T03:38:47.769Z,2.00
2023-02-12T03:41:20.772Z,2.15
2023-02-12T03:44:01.859Z,2.10
2023-02-12T03:46:47.504Z,2.08
2023-02-12T03:49:24.530Z,1.83
2023-02-12T03:51:51.812Z,2.55
2023-02-12T03:54:20.117Z,1.80
2023-02-12T03:56:52.523Z,2.13
2023-02-12T03:59:21.368Z,1.75
2023-02-12T04:01:49.542Z,2.00
2023-02-12T04:04:17.335Z,2.13
2023-02-12T04:06:45.831Z,2.60
2023-02-12T04:09:13.907Z,1.80
2023-02-12T04:11:50.160Z,2.10
2023-02-12T04:14:24.730Z,1.90
2023-02-12T04:16:57.918Z,1.50
2023-02-12T04:19:33.581Z,1.58
2023-02-12T04:22:06.634Z,1.45
2023-02-12T04:24:36.536Z,1.67
2023-02-12T04:27:14.000Z,1.83
2023-02-12T04:29:48.356Z,1.73
2023-02-12T04:32:30.652Z,1.77
2023-02-12T04:35:03.711Z,1.70
2023-02-12T04:37:39.201Z,1.70
2023-02-12T04:40:08.320Z,2.05
2023-02-12T04:45:02.530Z,2.20
2023-02-12T04:47:30.706Z,2.15
2023-02-12T04:49:58.147Z,2.00
2023-02-12T04:52:25.537Z,2.67
2023-02-12T04:54:53.069Z,2.10
2023-02-12T04:57:20.252Z,2.25
2023-02-12T04:59:47.429Z,1.88
2023-02-12T05:02:14.536Z,2.03
2023-02-12T05:04:41.673Z,2.17
2023-02-12T05:07:08.857Z,2.15
2023-02-12T05:09:36.398Z,2.20
2023-02-12T05:12:03.908Z,1.85
2023-02-12T05:14:31.250Z,2.10
2023-02-12T05:16:58.380Z,1.88
2023-02-12T05:19:25.543Z,2.83
2023-02-12T05:21:52.699Z,1.83
2023-02-12T05:24:19.814Z,2.10
2023-02-12T05:26:48.368Z,1.90
2023-02-12T05:29:16.435Z,2.00
2023-02-12T05:31:43.835Z,2.33
2023-02-12T05:34:11.983Z,2.72
2023-02-12T05:36:39.325Z,2.40
2023-02-12T05:39:07.718Z,1.75
2023-02-12T05:41:35.758Z,2.40
2023-02-12T05:44:03.836Z,2.17
2023-02-12T05:46:31.237Z,2.70
2023-02-12T05:48:58.631Z,2.50
2023-02-12T05:51:27.236Z,2.45
2023-02-12T05:53:58.868Z,2.40
2023-02-12T05:56:27.720Z,2.10
2023-02-12T06:01:24.203Z,2.20
2023-02-12T06:03:51.809Z,2.20
2023-02-12T06:06:19.187Z,3.47
2023-02-12T06:08:49.813Z,3.40
2023-02-12T06:11:17.861Z,2.63
2023-02-12T06:13:45.046Z,2.30
2023-02-12T06:16:27.932Z,2.90
2023-02-12T06:18:56.023Z,2.45
2023-02-12T06:21:27.397Z,2.90
2023-02-12T06:23:54.879Z,2.80
2023-02-12T06:26:22.726Z,3.53
2023-02-12T06:28:51.041Z,3.08
2023-02-12T06:31:18.478Z,2.40
2023-02-12T06:33:45.841Z,2.75
2023-02-12T06:36:13.339Z,3.03
2023-02-12T06:38:40.892Z,3.00
2023-02-12T06:41:08.051Z,2.97
2023-02-12T06:43:35.206Z,2.60
2023-02-12T06:46:02.901Z,2.90
2023-02-12T06:48:31.014Z,2.70
2023-02-12T06:51:05.606Z,3.40
2023-02-12T06:53:33.427Z,3.35
2023-02-12T06:56:01.983Z,3.78
2023-02-12T07:00:57.227Z,3.97
2023-02-12T07:03:25.115Z,8.07
2023-02-12T07:05:52.676Z,4.38
2023-02-12T07:08:20.786Z,8.07
2023-02-12T07:10:48.688Z,6.35
2023-02-12T07:13:16.133Z,3.97
2023-02-12T07:15:43.375Z,3.47
2023-02-12T07:18:10.701Z,3.75
2023-02-12T07:20:37.873Z,3.80
2023-02-12T07:23:05.053Z,4.13
2023-02-12T07:25:32.298Z,3.85
2023-02-12T07:28:00.239Z,4.10
2023-02-12T07:30:27.395Z,3.30
2023-02-12T07:32:54.961Z,5.47
2023-02-12T07:35:22.770Z,4.53
2023-02-12T07:37:50.204Z,8.73
2023-02-12T07:40:18.072Z,6.45
2023-02-12T07:42:45.233Z,6.38
2023-02-12T07:45:12.425Z,4.55
2023-02-12T07:47:40.675Z,4.45
2023-02-12T07:50:08.576Z,3.75
2023-02-12T07:52:36.024Z,3.80
2023-02-12T07:55:03.502Z,3.65
2023-02-12T07:57:30.891Z,3.97
2023-02-12T07:59:58.164Z,4.32
2023-02-12T08:02:25.897Z,3.33
2023-02-12T08:04:57.036Z,5.32
2023-02-12T08:07:24.323Z,3.60
2023-02-12T08:09:51.848Z,3.72
2023-02-12T08:12:19.304Z,3.42
2023-02-12T08:14:46.458Z,3.38
2023-02-12T08:17:13.594Z,3.80
2023-02-12T08:19:41.255Z,3.70
2023-02-12T08:22:08.766Z,3.10
2023-02-12T08:24:36.132Z,2.83
2023-02-12T08:27:04.997Z,3.22
2023-02-12T08:29:32.222Z,2.97
2023-02-12T08:32:03.430Z,3.17
2023-02-12T08:34:31.696Z,2.80
2023-02-12T08:36:59.496Z,2.90
2023-02-12T08:39:29.659Z,3.27
2023-02-12T08:41:57.923Z,2.70
2023-02-12T08:44:25.237Z,2.78
2023-02-12T08:46:53.001Z,3.13
2023-02-12T08:49:21.442Z,3.42
2023-02-12T08:51:49.848Z,2.55
2023-02-12T08:54:18.891Z,2.75
2023-02-12T08:59:13.682Z,3.33
2023-02-12T09:01:44.296Z,2.07
2023-02-12T09:04:17.806Z,3.20
2023-02-12T09:06:45.505Z,3.20
2023-02-12T09:09:12.941Z,1.92
2023-02-12T09:11:40.672Z,2.53
2023-02-12T09:14:10.531Z,2.90
2023-02-12T09:16:38.193Z,2.53
2023-02-12T09:19:05.461Z,2.50
2023-02-12T09:21:33.141Z,2.85
2023-02-12T09:24:01.152Z,2.88
2023-02-12T09:26:28.266Z,3.00
2023-02-12T09:28:55.430Z,2.83
2023-02-12T09:31:26.615Z,3.30
2023-02-12T09:34:04.761Z,3.03
2023-02-12T09:36:32.651Z,2.92
2023-02-12T09:39:00.642Z,2.17
2023-02-12T09:41:47.135Z,2.97
2023-02-12T09:44:35.615Z,3.28
2023-02-12T09:47:06.969Z,2.10
2023-02-12T09:49:37.190Z,2.40
2023-02-12T09:52:05.936Z,2.67
2023-02-12T09:54:42.248Z,1.90
2023-02-12T09:57:31.344Z,1.90
2023-02-12T10:00:04.354Z,1.90
2023-02-12T10:02:34.938Z,1.83
2023-02-12T10:05:02.747Z,1.90
2023-02-12T10:07:45.349Z,1.73
2023-02-12T10:10:12.448Z,1.98
2023-02-12T10:12:41.316Z,2.60
2023-02-12T10:15:14.418Z,2.53
2023-02-12T10:17:43.803Z,1.83
2023-02-12T10:20:29.522Z,2.70
2023-02-12T10:22:59.701Z,2.55
2023-02-12T10:25:35.847Z,3.60
2023-02-12T10:28:08.804Z,2.97
2023-02-12T10:30:45.348Z,2.20
2023-02-12T10:33:26.766Z,2.75
2023-02-12T10:36:03.971Z,2.70
2023-02-12T10:38:35.039Z,2.35
2023-02-12T10:41:02.869Z,2.30
2023-02-12T10:43:30.605Z,2.80
2023-02-12T10:45:58.345Z,3.22
2023-02-12T10:48:34.929Z,2.13
2023-02-12T10:51:09.137Z,2.63
2023-02-12T10:53:38.099Z,2.03
2023-02-12T10:58:32.609Z,2.20
2023-02-12T11:01:00.549Z,1.92
2023-02-12T11:03:30.112Z,1.63
2023-02-12T11:06:11.189Z,1.88
2023-02-12T11:08:39.619Z,2.10
2023-02-12T11:11:11.610Z,2.03
2023-02-12T11:13:45.855Z,2.20
2023-02-12T11:16:13.400Z,2.38
2023-02-12T11:18:41.820Z,2.38
2023-02-12T11:21:12.782Z,2.20
2023-02-12T11:23:41.520Z,2.55
2023-02-12T11:26:17.970Z,3.38
2023-02-12T11:28:54.841Z,2.00
2023-02-12T11:31:24.375Z,1.80
2023-02-12T11:34:04.123Z,2.20
2023-02-12T11:36:33.084Z,2.30
2023-02-12T11:41:36.280Z,1.88
2023-02-12T11:44:12.377Z,2.28
2023-02-12T11:46:40.481Z,2.13
2023-02-12T11:49:09.406Z,1.77
2023-02-12T11:51:37.899Z,2.25
2023-02-12T11:54:06.555Z,2.33
2023-02-12T11:56:40.934Z,2.60
2023-02-12T11:59:34.545Z,2.15
2023-02-12T12:02:20.667Z,2.60
2023-02-12T12:04:49.953Z,2.15
2023-02-12T12:07:29.967Z,2.00
2023-02-12T12:10:12.560Z,2.05
2023-02-12T12:12:49.475Z,2.20
2023-02-12T12:15:41.369Z,2.08
2023-02-12T12:18:50.454Z,2.05
2023-02-12T12:21:36.494Z,2.10
2023-02-12T12:24:28.704Z,2.10
2023-02-12T12:27:00.961Z,1.92
2023-02-12T12:29:46.235Z,1.80
2023-02-12T12:32:16.131Z,2.22
2023-02-12T12:34:43.358Z,3.28
2023-02-12T12:37:16.686Z,2.13
2023-02-12T12:39:55.933Z,2.10
2023-02-12T12:44:53.028Z,2.17
2023-02-12T12:47:32.499Z,2.55
2023-02-12T12:50:07.815Z,2.40
2023-02-12T12:52:47.605Z,2.95
2023-02-12T12:55:21.446Z,3.03
2023-02-12T12:58:01.499Z,2.55
2023-02-12T13:00:41.654Z,2.55
2023-02-12T13:03:48.123Z,3.20
2023-02-12T13:06:34.450Z,3.05
2023-02-12T13:09:04.873Z,3.10
2023-02-12T13:11:33.462Z,2.88
2023-02-12T13:14:19.174Z,2.70
2023-02-12T13:16:48.413Z,2.67
2023-02-12T13:21:59.226Z,2.80
2023-02-12T13:24:33.067Z,2.53
2023-02-12T13:27:08.516Z,3.03
2023-02-12T13:29:39.122Z,2.75
2023-02-12T13:32:06.720Z,2.35
2023-02-12T13:34:35.752Z,2.40
2023-02-12T13:37:04.337Z,2.08
2023-02-12T13:39:34.302Z,2.33
2023-02-12T13:42:08.306Z,2.40
2023-02-12T13:44:40.919Z,2.40
2023-02-12T13:47:21.202Z,2.78
2023-02-12T13:49:48.637Z,2.33
2023-02-12T13:52:19.353Z,2.90
2023-02-12T13:54:53.342Z,2.70
2023-02-12T13:57:20.923Z,2.63
2023-02-12T13:59:49.180Z,3.45
2023-02-12T14:02:22.800Z,2.92
2023-02-12T14:04:53.278Z,2.92
2023-02-12T14:07:21.579Z,2.80
2023-02-12T14:09:52.021Z,2.50
2023-02-12T14:12:25.366Z,2.97
2023-02-12T14:14:54.788Z,3.20
2023-02-12T14:17:28.183Z,3.30
2023-02-12T14:20:04.983Z,4.05
2023-02-12T14:22:32.691Z,3.22
2023-02-12T14:25:22.851Z,3.28
2023-02-12T14:27:52.114Z,3.10
2023-02-12T14:30:19.431Z,3.45
2023-02-12T14:32:57.868Z,3.22
2023-02-12T14:35:36.160Z,3.00
2023-02-12T14:38:10.254Z,2.65
2023-02-12T14:40:47.919Z,3.53
2023-02-12T14:43:54.761Z,3.00
2023-02-12T14:46:22.506Z,3.00
2023-02-12T14:48:56.146Z,3.28
2023-02-12T14:51:44.982Z,3.72
2023-02-12T14:54:18.644Z,3.85
2023-02-12T14:56:47.676Z,3.30
2023-02-12T14:59:17.838Z,4.10
2023-02-12T15:01:45.855Z,4.57
2023-02-12T15:04:33.811Z,4.10
2023-02-12T15:07:08.193Z,3.88
2023-02-12T15:09:53.985Z,5.05
2023-02-12T15:12:32.734Z,5.35
2023-02-12T15:15:12.317Z,3.85
2023-02-12T15:17:40.997Z,4.55
2023-02-12T15:20:17.281Z,4.00
2023-02-12T15:22:44.420Z,4.20
2023-02-12T15:25:16.449Z,4.32
2023-02-12T15:27:44.500Z,4.32
2023-02-12T15:30:25.886Z,4.30
2023-02-12T15:32:58.240Z,4.63
2023-02-12T15:35:30.133Z,5.03
2023-02-12T15:38:00.801Z,4.22
2023-02-12T15:40:29.093Z,5.03
2023-02-12T15:42:58.948Z,3.40
2023-02-12T15:45:27.632Z,5.07
2023-02-12T15:47:57.829Z,4.22
2023-02-12T15:50:26.455Z,4.88
2023-02-12T15:52:56.283Z,3.80
2023-02-12T15:57:53.882Z,4.47
2023-02-12T16:02:51.825Z,4.50
2023-02-12T16:05:19.832Z,4.95
2023-02-12T16:07:47.881Z,4.47
2023-02-12T16:10:19.375Z,5.57
2023-02-12T16:12:48.128Z,5.45
2023-02-12T16:15:26.220Z,4.70
2023-02-12T16:17:53.767Z,6.20
2023-02-12T16:20:25.633Z,5.85
2023-02-12T16:22:53.208Z,5.63
2023-02-12T16:25:20.289Z,5.47
2023-02-12T16:27:53.814Z,5.00
2023-02-12T16:30:24.063Z,6.13
2023-02-12T16:32:51.810Z,6.28
2023-02-12T16:35:19.106Z,5.10
2023-02-12T16:37:50.775Z,6.53
2023-02-12T16:40:21.452Z,6.30
2023-02-12T16:42:48.809Z,5.50
2023-02-12T16:45:22.073Z,5.30
2023-02-12T16:47:51.020Z,6.15
2023-02-12T16:50:18.735Z,4.82
2023-02-12T16:52:46.457Z,6.68
2023-02-12T16:55:17.065Z,6.18
2023-02-12T16:57:44.895Z,7.22
2023-02-12T17:00:16.266Z,6.77
2023-02-12T17:02:44.781Z,7.15
2023-02-12T17:05:12.875Z,6.25
2023-02-12T17:07:40.537Z,6.45
2023-02-12T17:10:11.862Z,8.07
2023-02-12T17:12:48.136Z,5.75
2023-02-12T17:15:19.648Z,6.78
2023-02-12T17:17:47.383Z,5.95
2023-02-12T17:20:15.121Z,7.65
2023-02-12T17:22:48.829Z,6.32
2023-02-12T17:25:16.064Z,6.75
2023-02-12T17:27:43.421Z,7.90
2023-02-12T17:30:21.736Z,6.82
2023-02-12T17:32:51.301Z,5.95
2023-02-12T17:35:18.935Z,6.97
2023-02-12T17:37:48.055Z,6.00
2023-02-12T17:40:16.384Z,5.78
2023-02-12T17:42:44.100Z,5.18
2023-02-12T17:45:11.797Z,6.00
2023-02-12T17:47:41.779Z,6.13
2023-02-12T17:50:12.250Z,5.60
2023-02-12T17:52:39.949Z,7.13
2023-02-12T17:55:07.921Z,5.95
2023-02-12T17:57:35.414Z,6.57
2023-02-12T18:00:04.799Z,6.13
2023-02-12T18:04:59.383Z,6.97
2023-02-12T18:07:27.311Z,5.80
2023-02-12T18:09:54.977Z,6.47
2023-02-12T18:12:22.681Z,5.78
2023-02-12T18:14:50.141Z,6.03
2023-02-12T18:17:17.686Z,5.18
2023-02-12T18:19:45.415Z,6.68
2023-02-12T18:22:13.071Z,6.25
2023-02-12T18:24:44.003Z,5.45
2023-02-12T18:27:12.435Z,5.78
2023-02-12T18:29:40.275Z,6.07
2023-02-12T18:32:08.326Z,5.55
2023-02-12T18:34:36.146Z,6.05
2023-02-12T18:37:03.546Z,5.80
2023-02-12T18:39:31.274Z,5.88
2023-02-12T18:41:58.795Z,5.07
2023-02-12T18:44:26.619Z,5.35
2023-02-12T18:46:54.364Z,5.10
2023-02-12T18:49:21.836Z,4.47
2023-02-12T18:51:49.591Z,4.68
2023-02-12T18:54:17.026Z,4.85
2023-02-12T18:56:45.270Z,4.75
2023-02-12T18:59:13.720Z,3.67
2023-02-12T19:01:41.748Z,4.20
2023-02-12T19:04:14.104Z,5.35
2023-02-12T19:06:44.382Z,5.38
2023-02-12T19:09:13.411Z,5.28
2023-02-12T19:11:40.850Z,5.72
2023-02-12T19:14:08.419Z,5.13
2023-02-12T19:16:35.715Z,5.45
2023-02-12T19:19:03.674Z,5.72
2023-02-12T19:21:31.240Z,5.03
2023-02-12T19:23:59.678Z,5.00
2023-02-12T19:26:30.779Z,4.60
2023-02-12T19:28:58.506Z,4.50
2023-02-12T19:31:30.469Z,4.60
2023-02-12T19:33:59.354Z,4.38
2023-02-12T19:38:54.745Z,3.85
2023-02-12T19:41:23.835Z,3.03
2023-02-12T19:43:55.930Z,3.97
2023-02-12T19:46:24.419Z,4.30
2023-02-12T19:48:54.740Z,4.70
2023-02-12T19:51:22.809Z,4.28
2023-02-12T19:53:50.340Z,4.50
2023-02-12T19:56:18.479Z,3.85
2023-02-12T19:58:46.122Z,3.38
2023-02-12T20:01:16.255Z,4.00
2023-02-12T20:03:44.553Z,3.78
2023-02-12T20:06:16.489Z,4.07
2023-02-12T20:08:44.392Z,4.78
2023-02-12T20:11:13.969Z,4.25
2023-02-12T20:13:42.270Z,4.68
2023-02-12T20:16:11.233Z,4.40
2023-02-12T20:18:38.947Z,3.85
2023-02-12T20:21:10.788Z,4.83
2023-02-12T20:23:38.856Z,4.43
2023-02-12T20:26:07.764Z,4.43
2023-02-12T20:28:36.507Z,4.78
2023-02-12T20:31:17.301Z,4.20
2023-02-12T20:33:44.874Z,3.72
2023-02-12T20:36:13.100Z,4.30
2023-02-12T20:38:41.782Z,4.20
2023-02-12T20:41:09.855Z,3.75
2023-02-12T20:43:37.811Z,5.25
2023-02-12T20:46:06.745Z,3.97
2023-02-12T20:48:34.342Z,3.35
2023-02-12T20:51:05.842Z,3.28
2023-02-12T20:53:33.660Z,3.38
2023-02-12T20:56:04.524Z,5.07
2023-02-12T20:58:32.242Z,4.43
2023-02-12T21:01:03.716Z,3.85
2023-02-12T21:03:31.214Z,3.72
2023-02-12T21:05:58.985Z,3.75
2023-02-12T21:08:26.909Z,2.97
2023-02-12T21:11:04.292Z,4.13
2023-02-12T21:13:32.244Z,4.13
2023-02-12T21:16:10.039Z,4.18
2023-02-12T21:18:37.984Z,4.40
2023-02-12T21:21:06.483Z,4.78
2023-02-12T21:23:34.572Z,4.35
2023-02-12T21:26:12.795Z,5.45
2023-02-12T21:28:40.377Z,4.47
2023-02-12T21:31:09.778Z,4.30
2023-02-12T21:33:38.093Z,3.78
2023-02-12T21:36:09.906Z,2.75
2023-02-12T21:38:38.263Z,3.58
2023-02-12T21:41:08.569Z,4.25
2023-02-12T21:43:36.478Z,4.43
2023-02-12T21:46:03.825Z,3.70
2023-02-12T21:48:31.346Z,3.45
2023-02-12T21:50:59.159Z,3.85
2023-02-12T21:53:27.533Z,3.75
2023-02-12T21:55:55.250Z,3.55
2023-02-12T21:58:23.160Z,4.05
2023-02-12T22:00:50.805Z,2.55
2023-02-12T22:03:19.536Z,3.35
2023-02-12T22:08:14.309Z,3.70
2023-02-12T22:10:41.542Z,3.95
2023-02-12T22:13:08.710Z,3.40
2023-02-12T22:15:36.411Z,3.30
2023-02-12T22:18:03.975Z,3.08
2023-02-12T22:20:31.447Z,3.15
2023-02-12T22:22:58.541Z,3.22
2023-02-12T22:25:27.710Z,3.08
2023-02-12T22:27:55.150Z,3.08
2023-02-12T22:30:22.705Z,2.97
2023-02-12T22:32:49.835Z,3.47
2023-02-12T22:35:16.948Z,3.40
2023-02-12T22:37:44.153Z,2.95
2023-02-12T22:40:11.747Z,3.22
2023-02-12T22:42:39.233Z,3.67
2023-02-12T22:45:06.786Z,3.10
2023-02-12T22:47:34.022Z,3.42
2023-02-12T22:50:01.284Z,3.63
2023-02-12T22:52:28.852Z,2.80
2023-02-12T22:54:55.984Z,3.30
2023-02-12T22:57:23.138Z,2.90
2023-02-12T22:59:50.344Z,2.65
2023-02-12T23:02:17.668Z,2.88
2023-02-12T23:04:44.831Z,3.83
2023-02-12T23:07:11.984Z,3.25
2023-02-12T23:09:39.352Z,2.63
2023-02-12T23:12:09.551Z,2.70
2023-02-12T23:14:36.794Z,2.22
2023-02-12T23:17:04.404Z,2.67
2023-02-12T23:19:31.675Z,3.58
2023-02-12T23:21:59.296Z,2.95
2023-02-12T23:24:26.379Z,2.42
2023-02-12T23:26:53.744Z,2.22
2023-02-12T23:29:21.129Z,2.83
2023-02-12T23:31:49.145Z,3.40
2023-02-12T23:34:16.475Z,2.65
2023-02-12T23:36:43.914Z,3.10
2023-02-12T23:39:12.260Z,3.08
2023-02-12T23:41:39.774Z,2.50
2023-02-12T23:44:07.157Z,3.20
2023-02-12T23:46:34.395Z,2.78
2023-02-12T23:49:01.634Z,2.65
2023-02-12T23:51:29.122Z,3.20
2023-02-12T23:53:56.673Z,2.92
2023-02-12T23:56:24.176Z,3.30
2023-02-12T23:58:51.538Z,2.58
